createdAt,value
2019-05-02T00:00:47.037Z,1.00
2019-05-02T00:03:18.216Z,1.00
2019-05-02T00:05:48.641Z,0.40
2019-05-02T00:08:19.617Z,0.00
2019-05-02T00:10:50.349Z,0.00
2019-05-02T00:13:20.983Z,1.00
2019-05-02T00:15:52.728Z,0.60
2019-05-02T00:18:24.198Z,0.00
2019-05-02T00:20:57.119Z,1.00
2019-05-02T00:23:27.876Z,1.20
2019-05-02T00:25:58.553Z,0.80
2019-05-02T00:28:29.401Z,1.00
2019-05-02T00:30:59.531Z,1.00
2019-05-02T00:33:34.385Z,1.00
2019-05-02T00:36:01.597Z,1.00
2019-05-02T00:38:33.489Z,0.40
2019-05-02T00:41:04.419Z,1.60
2019-05-02T00:43:36.381Z,1.00
2019-05-02T00:46:06.722Z,1.00
2019-05-02T00:48:45.209Z,1.00
2019-05-02T00:51:15.828Z,1.00
2019-05-02T00:53:48.456Z,2.40
2019-05-02T00:56:18.317Z,1.00
2019-05-02T00:58:48.908Z,0.00
2019-05-02T01:01:24.314Z,1.20
2019-05-02T01:03:53.913Z,0.80
2019-05-02T01:06:24.116Z,0.00
2019-05-02T01:08:54.487Z,0.60
2019-05-02T01:11:28.316Z,0.60
2019-05-02T01:13:57.742Z,1.20
2019-05-02T01:16:28.081Z,1.40
2019-05-02T01:18:58.724Z,1.00
2019-05-02T01:21:29.076Z,0.60
2019-05-02T01:24:02.974Z,0.00
2019-05-02T01:26:32.697Z,0.20
2019-05-02T01:29:24.839Z,1.00
2019-05-02T01:31:56.182Z,1.00
2019-05-02T01:34:43.479Z,1.00
2019-05-02T01:37:25.225Z,1.00
2019-05-02T01:39:56.296Z,1.00
2019-05-02T01:42:39.279Z,0.40
2019-05-02T01:44:58.892Z,0.00
2019-05-02T01:47:34.031Z,0.00
2019-05-02T01:50:01.177Z,0.00
2019-05-02T01:52:31.400Z,1.00
2019-05-02T01:55:01.621Z,1.00
2019-05-02T01:57:31.952Z,0.20
2019-05-02T02:00:07.600Z,0.20
2019-05-02T02:02:34.154Z,0.20
2019-05-02T02:05:05.943Z,0.00
2019-05-02T02:07:36.513Z,0.20
2019-05-02T02:10:07.340Z,0.00
2019-05-02T02:12:42.995Z,1.00
2019-05-02T02:15:10.264Z,0.60
2019-05-02T02:17:40.766Z,1.00
2019-05-02T02:20:29.203Z,0.80
2019-05-02T02:23:04.386Z,0.00
2019-05-02T02:25:43.324Z,0.00
2019-05-02T02:28:13.603Z,0.60
2019-05-02T02:30:43.755Z,0.00
2019-05-02T02:33:14.378Z,0.20
2019-05-02T02:35:50.223Z,0.00
2019-05-02T02:38:16.365Z,0.00
2019-05-02T02:40:46.273Z,0.00
2019-05-02T02:43:32.944Z,0.00
2019-05-02T02:45:57.636Z,0.00
2019-05-02T02:48:26.142Z,0.80
2019-05-02T02:50:56.258Z,0.00
2019-05-02T02:53:32.740Z,0.00
2019-05-02T02:56:08.658Z,0.00
2019-05-02T02:58:45.726Z,0.00
2019-05-02T03:01:11.060Z,0.00
2019-05-02T03:03:41.308Z,0.40
2019-05-02T03:06:11.821Z,0.00
2019-05-02T03:08:46.324Z,0.00
2019-05-02T03:11:22.735Z,0.00
2019-05-02T03:13:53.722Z,0.00
2019-05-02T03:16:22.171Z,0.00
2019-05-02T03:18:52.711Z,0.00
2019-05-02T03:21:23.294Z,0.00
2019-05-02T03:24:01.672Z,0.60
2019-05-02T03:26:25.957Z,0.00
2019-05-02T03:28:58.701Z,0.60
2019-05-02T03:31:30.828Z,0.00
2019-05-02T03:34:01.405Z,0.80
2019-05-02T03:36:36.234Z,0.00
2019-05-02T03:39:13.371Z,0.00
2019-05-02T03:41:36.137Z,0.00
2019-05-02T03:44:11.071Z,0.60
2019-05-02T03:46:38.706Z,1.00
2019-05-02T03:49:09.834Z,0.00
2019-05-02T03:51:40.687Z,0.00
2019-05-02T03:54:10.824Z,0.00
2019-05-02T03:56:44.642Z,0.00
2019-05-02T03:59:12.827Z,0.00
2019-05-02T04:01:43.138Z,0.60
2019-05-02T04:04:14.047Z,0.00
2019-05-02T04:06:45.610Z,0.00
2019-05-02T04:09:42.121Z,0.00
2019-05-02T04:12:17.724Z,0.00
2019-05-02T04:14:40.084Z,0.00
2019-05-02T04:17:11.297Z,0.00
2019-05-02T04:19:42.013Z,0.00
2019-05-02T04:22:12.497Z,0.00
2019-05-02T04:24:47.822Z,1.00
2019-05-02T04:27:15.345Z,0.00
2019-05-02T04:29:45.697Z,0.00
2019-05-02T04:32:16.181Z,0.00
2019-05-02T04:34:48.918Z,0.00
2019-05-02T04:37:19.469Z,0.00
2019-05-02T04:39:53.649Z,0.00
2019-05-02T04:42:23.130Z,0.20
2019-05-02T04:45:13.988Z,0.00
2019-05-02T04:47:28.731Z,0.00
2019-05-02T04:49:58.597Z,1.00
2019-05-02T04:52:29.020Z,0.20
2019-05-02T04:55:07.998Z,0.00
2019-05-02T04:57:37.003Z,0.20
2019-05-02T05:00:08.611Z,0.00
2019-05-02T05:02:37.308Z,0.00
2019-05-02T05:05:08.747Z,0.00
2019-05-02T05:07:44.274Z,1.00
2019-05-02T05:10:11.948Z,0.00
2019-05-02T05:12:42.175Z,0.00
2019-05-02T05:15:15.249Z,0.00
2019-05-02T05:17:44.025Z,0.00
2019-05-02T05:20:15.861Z,0.00
2019-05-02T05:22:47.771Z,0.00
2019-05-02T05:25:21.440Z,0.00
2019-05-02T05:27:52.523Z,1.00
2019-05-02T05:30:23.756Z,0.00
2019-05-02T05:32:54.091Z,1.00
2019-05-02T05:35:24.172Z,0.00
2019-05-02T05:37:54.391Z,0.00
2019-05-02T05:40:30.344Z,0.00
2019-05-02T05:42:57.398Z,0.40
2019-05-02T05:45:28.540Z,0.00
2019-05-02T05:48:01.015Z,0.00
2019-05-02T05:50:32.196Z,0.00
2019-05-02T05:53:02.494Z,0.60
2019-05-02T05:55:32.751Z,0.80
2019-05-02T05:58:13.208Z,0.00
2019-05-02T06:00:39.416Z,0.00
2019-05-02T06:03:13.898Z,0.00
2019-05-02T06:05:42.308Z,1.00
2019-05-02T06:08:13.763Z,0.00
2019-05-02T06:10:45.101Z,1.00
2019-05-02T06:13:15.326Z,1.00
2019-05-02T06:15:46.161Z,1.20
2019-05-02T06:18:16.786Z,1.00
2019-05-02T06:20:46.947Z,1.00
2019-05-02T06:23:17.596Z,1.00
2019-05-02T06:25:48.219Z,0.80
2019-05-02T06:28:18.516Z,0.00
2019-05-02T06:30:48.958Z,0.00
2019-05-02T06:33:19.645Z,2.00
2019-05-02T06:35:51.852Z,1.00
2019-05-02T06:38:22.938Z,0.00
2019-05-02T06:40:53.696Z,0.00
2019-05-02T06:43:23.841Z,1.00
2019-05-02T06:45:54.068Z,0.00
2019-05-02T06:48:24.388Z,0.00
2019-05-02T06:50:54.883Z,1.00
2019-05-02T06:53:25.029Z,0.80
2019-05-02T06:55:55.320Z,0.20
2019-05-02T06:58:26.385Z,0.00
2019-05-02T07:00:58.960Z,1.00
2019-05-02T07:03:29.069Z,0.00
2019-05-02T07:06:02.728Z,0.00
2019-05-02T07:08:31.450Z,0.00
2019-05-02T07:11:03.209Z,0.00
2019-05-02T07:13:36.453Z,0.00
2019-05-02T07:16:10.399Z,1.40
2019-05-02T07:18:47.512Z,0.60
2019-05-02T07:21:17.827Z,0.40
2019-05-02T07:23:53.472Z,0.00
2019-05-02T07:26:23.229Z,1.20
2019-05-02T07:28:53.021Z,1.00
2019-05-02T07:31:23.214Z,0.40
2019-05-02T07:33:53.451Z,0.80
2019-05-02T07:36:23.765Z,1.00
2019-05-02T07:38:57.671Z,0.60
2019-05-02T07:41:29.083Z,0.00
2019-05-02T07:43:57.559Z,0.40
2019-05-02T07:46:28.036Z,0.40
2019-05-02T07:48:58.185Z,0.00
2019-05-02T07:51:28.776Z,0.00
2019-05-02T07:53:58.911Z,0.00
2019-05-02T07:56:29.465Z,0.00
2019-05-02T07:59:00.571Z,0.00
2019-05-02T08:01:31.404Z,0.00
2019-05-02T08:04:04.466Z,0.00
2019-05-02T08:06:35.310Z,0.00
2019-05-02T08:09:08.990Z,0.00
2019-05-02T08:11:39.248Z,0.00
2019-05-02T08:14:09.677Z,0.00
2019-05-02T08:16:39.807Z,0.00
2019-05-02T08:19:10.052Z,0.00
2019-05-02T08:21:40.240Z,0.00
2019-05-02T08:24:10.580Z,0.00
2019-05-02T08:26:45.520Z,0.00
2019-05-02T08:29:16.637Z,0.00
2019-05-02T08:31:46.761Z,0.00
2019-05-02T08:34:18.753Z,0.80
2019-05-02T08:36:49.274Z,0.80
2019-05-02T08:39:19.510Z,0.00
2019-05-02T08:41:51.251Z,0.60
2019-05-02T08:44:22.108Z,0.00
2019-05-02T08:46:53.325Z,0.80
2019-05-02T08:49:23.911Z,0.40
2019-05-02T08:51:54.104Z,0.00
2019-05-02T08:54:28.048Z,0.00
2019-05-02T08:56:59.173Z,0.20
2019-05-02T08:59:29.044Z,0.00
2019-05-02T09:01:59.459Z,0.80
2019-05-02T09:04:30.723Z,0.20
2019-05-02T09:07:01.326Z,1.00
2019-05-02T09:09:32.300Z,0.80
2019-05-02T09:12:12.060Z,0.00
2019-05-02T09:14:34.905Z,0.00
2019-05-02T09:17:11.960Z,0.80
2019-05-02T09:19:36.974Z,0.60
2019-05-02T09:22:12.305Z,0.00
2019-05-02T09:24:42.221Z,0.00
2019-05-02T09:27:11.839Z,0.00
2019-05-02T09:29:45.811Z,1.00
2019-05-02T09:32:17.092Z,0.20
2019-05-02T09:34:46.477Z,0.00
2019-05-02T09:37:17.310Z,0.40
2019-05-02T09:39:48.291Z,0.00
2019-05-02T09:42:19.135Z,0.00
2019-05-02T09:44:55.738Z,0.00
2019-05-02T09:47:27.387Z,0.00
2019-05-02T09:50:08.912Z,0.00
2019-05-02T09:52:40.921Z,0.80
2019-05-02T09:55:12.144Z,0.00
2019-05-02T09:57:43.129Z,0.00
2019-05-02T10:00:22.003Z,0.00
2019-05-02T10:02:52.427Z,0.00
2019-05-02T10:05:23.122Z,0.00
2019-05-02T10:07:57.456Z,0.00
2019-05-02T10:10:25.636Z,0.00
2019-05-02T10:12:56.462Z,1.00
2019-05-02T10:15:27.929Z,0.00
2019-05-02T10:18:10.278Z,1.20
2019-05-02T10:20:36.019Z,1.00
2019-05-02T10:23:03.477Z,1.00
2019-05-02T10:25:38.542Z,0.00
2019-05-02T10:28:05.765Z,0.00
2019-05-02T10:30:36.305Z,0.00
2019-05-02T10:33:06.817Z,0.00
2019-05-02T10:35:40.839Z,0.40
2019-05-02T10:38:18.015Z,1.00
2019-05-02T10:40:42.916Z,0.00
2019-05-02T10:43:13.548Z,0.40
2019-05-02T10:45:47.433Z,0.00
2019-05-02T10:48:25.781Z,0.00
2019-05-02T10:50:52.497Z,0.00
2019-05-02T10:53:23.036Z,0.00
2019-05-02T10:55:53.356Z,0.00
2019-05-02T10:58:31.364Z,0.00
2019-05-02T11:00:55.538Z,0.20
2019-05-02T11:03:31.927Z,0.00
2019-05-02T11:06:07.313Z,0.00
2019-05-02T11:08:36.688Z,0.00
2019-05-02T11:11:07.177Z,0.00
2019-05-02T11:13:45.169Z,0.00
2019-05-02T11:16:29.073Z,0.00
2019-05-02T11:19:02.521Z,1.00
2019-05-02T11:21:32.948Z,1.00
2019-05-02T11:24:03.193Z,0.20
2019-05-02T11:26:34.311Z,0.00
2019-05-02T11:29:04.851Z,0.80
2019-05-02T11:31:35.585Z,0.80
2019-05-02T11:34:05.828Z,1.00
2019-05-02T11:36:36.438Z,0.00
2019-05-02T11:39:16.177Z,1.00
2019-05-02T11:41:42.100Z,1.00
2019-05-02T11:44:12.270Z,0.60
2019-05-02T11:46:46.792Z,1.00
2019-05-02T11:49:14.540Z,2.00
2019-05-02T11:51:47.070Z,1.60
2019-05-02T11:54:16.892Z,1.80
2019-05-02T11:56:49.208Z,1.00
2019-05-02T11:59:20.753Z,0.80
2019-05-02T12:02:09.510Z,0.00
2019-05-02T12:04:41.697Z,1.00
2019-05-02T12:07:12.823Z,0.60
2019-05-02T12:09:45.096Z,3.20
2019-05-02T12:12:15.740Z,3.20
2019-05-02T12:14:45.906Z,1.00
2019-05-02T12:17:16.284Z,1.60
2019-05-02T12:19:46.448Z,1.00
2019-05-02T12:22:17.013Z,1.00
2019-05-02T12:24:47.794Z,0.00
2019-05-02T12:27:17.936Z,0.00
2019-05-02T12:29:50.152Z,0.00
2019-05-02T12:32:22.330Z,0.00
2019-05-02T12:34:52.585Z,1.00
2019-05-02T12:37:23.750Z,0.00
2019-05-02T12:39:54.143Z,0.60
2019-05-02T12:42:24.724Z,0.00
2019-05-02T12:44:55.420Z,1.20
2019-05-02T12:47:25.686Z,1.20
2019-05-02T12:49:56.790Z,1.00
2019-05-02T12:52:26.910Z,1.00
2019-05-02T12:54:57.569Z,1.80
2019-05-02T12:57:28.773Z,1.20
2019-05-02T12:59:58.848Z,1.20
2019-05-02T13:02:41.706Z,2.40
2019-05-02T13:05:13.158Z,1.00
2019-05-02T13:07:50.734Z,1.80
2019-05-02T13:10:17.129Z,1.00
2019-05-02T13:12:47.761Z,2.00
2019-05-02T13:15:18.002Z,2.00
2019-05-02T13:17:49.067Z,4.00
2019-05-02T13:20:22.869Z,4.00
2019-05-02T13:23:01.529Z,4.00
2019-05-02T13:25:36.760Z,5.00
2019-05-02T13:28:04.337Z,5.00
2019-05-02T13:30:46.669Z,5.40
2019-05-02T13:33:22.758Z,4.80
2019-05-02T13:35:54.706Z,2.40
2019-05-02T13:38:25.076Z,1.20
2019-05-02T13:40:55.591Z,2.00
2019-05-02T13:43:27.645Z,1.60
2019-05-02T13:46:12.624Z,1.60
2019-05-02T13:48:43.087Z,2.00
2019-05-02T13:51:13.308Z,4.00
2019-05-02T13:53:47.072Z,1.00
2019-05-02T13:56:24.658Z,0.60
2019-05-02T13:58:54.888Z,2.00
2019-05-02T14:01:26.760Z,2.40
2019-05-02T14:03:57.109Z,1.00
2019-05-02T14:06:29.808Z,2.00
2019-05-02T14:09:20.060Z,1.00
2019-05-02T14:12:06.438Z,1.00
2019-05-02T14:14:36.897Z,3.40
2019-05-02T14:17:07.328Z,4.00
2019-05-02T14:19:37.653Z,2.80
2019-05-02T14:22:07.910Z,4.00
2019-05-02T14:24:38.173Z,2.00
2019-05-02T14:27:12.881Z,1.20
2019-05-02T14:29:42.289Z,4.00
2019-05-02T14:32:22.958Z,2.00
2019-05-02T14:34:52.530Z,4.40
2019-05-02T14:37:22.760Z,4.00
2019-05-02T14:39:54.685Z,4.00
2019-05-02T14:42:26.240Z,1.80
2019-05-02T14:45:08.870Z,1.00
2019-05-02T14:47:29.237Z,2.80
2019-05-02T14:50:02.087Z,1.80
2019-05-02T14:52:32.655Z,0.00
2019-05-02T14:55:03.793Z,3.80
2019-05-02T14:57:34.099Z,2.80
2019-05-02T15:00:05.714Z,2.50
2019-05-02T15:02:48.981Z,5.00
2019-05-02T15:05:19.290Z,3.80
2019-05-02T15:07:47.772Z,1.80
2019-05-02T15:10:18.137Z,2.40
2019-05-02T15:12:51.701Z,0.00
2019-05-02T15:15:23.058Z,4.40
2019-05-02T15:17:56.705Z,2.80
2019-05-02T15:20:37.214Z,2.00
2019-05-02T15:22:59.288Z,3.20
2019-05-02T15:25:31.461Z,5.00
2019-05-02T15:28:02.437Z,5.00
2019-05-02T15:30:38.643Z,5.60
2019-05-02T15:33:12.380Z,5.00
2019-05-02T15:35:46.065Z,4.80
2019-05-02T15:38:24.216Z,5.00
2019-05-02T15:40:51.353Z,5.80
2019-05-02T15:43:19.772Z,5.00
2019-05-02T15:45:52.530Z,5.80
2019-05-02T15:48:27.262Z,3.80
2019-05-02T15:50:55.251Z,3.60
2019-05-02T15:53:34.363Z,4.80
2019-05-02T15:56:04.346Z,2.40
2019-05-02T15:58:34.432Z,2.20
2019-05-02T16:01:18.589Z,3.20
2019-05-02T16:03:52.147Z,4.60
2019-05-02T16:06:30.492Z,5.00
2019-05-02T16:08:54.358Z,5.80
2019-05-02T16:11:25.012Z,4.40
2019-05-02T16:13:56.016Z,5.00
2019-05-02T16:16:27.158Z,5.20
2019-05-02T16:18:57.590Z,2.00
2019-05-02T16:21:30.600Z,5.20
2019-05-02T16:24:22.544Z,5.00
2019-05-02T16:26:56.587Z,4.80
2019-05-02T16:29:28.481Z,4.60
2019-05-02T16:32:03.569Z,2.20
2019-05-02T16:34:35.531Z,2.80
2019-05-02T16:37:16.683Z,2.80
2019-05-02T16:39:49.387Z,4.80
2019-05-02T16:42:19.167Z,3.00
2019-05-02T16:44:49.601Z,1.40
2019-05-02T16:47:21.850Z,2.00
2019-05-02T16:49:53.290Z,2.00
2019-05-02T16:52:23.416Z,2.00
2019-05-02T16:54:53.632Z,4.60
2019-05-02T16:57:24.605Z,1.00
2019-05-02T17:00:01.301Z,1.00
2019-05-02T17:02:26.797Z,1.00
2019-05-02T17:05:00.286Z,2.00
2019-05-02T17:07:29.980Z,2.00
2019-05-02T17:10:02.759Z,2.00
2019-05-02T17:12:33.869Z,3.00
2019-05-02T17:15:26.236Z,1.00
2019-05-02T17:17:54.411Z,0.00
2019-05-02T17:20:25.095Z,1.80
2019-05-02T17:23:02.162Z,2.40
2019-05-02T17:25:27.140Z,0.80
2019-05-02T17:28:04.037Z,0.60
2019-05-02T17:30:33.329Z,1.00
2019-05-02T17:33:01.884Z,1.40
2019-05-02T17:35:32.570Z,2.00
2019-05-02T17:38:03.157Z,1.00
2019-05-02T17:40:33.501Z,0.20
2019-05-02T17:43:06.898Z,0.00
2019-05-02T17:45:38.566Z,1.00
2019-05-02T17:48:15.892Z,1.00
2019-05-02T17:50:59.482Z,0.00
2019-05-02T17:53:33.891Z,0.60
2019-05-02T17:56:02.232Z,0.80
2019-05-02T17:58:32.481Z,1.00
2019-05-02T18:01:04.203Z,1.00
2019-05-02T18:03:35.326Z,1.60
2019-05-02T18:06:07.635Z,0.60
2019-05-02T18:08:38.775Z,0.00
2019-05-02T18:11:09.050Z,0.80
2019-05-02T18:13:39.635Z,0.00
2019-05-02T18:16:15.085Z,0.00
2019-05-02T18:18:43.754Z,0.00
2019-05-02T18:21:17.748Z,0.60
2019-05-02T18:23:46.965Z,0.00
2019-05-02T18:26:17.203Z,0.00
2019-05-02T18:28:49.466Z,0.00
2019-05-02T18:31:21.428Z,0.40
2019-05-02T18:33:52.223Z,0.60
2019-05-02T18:36:23.847Z,0.20
2019-05-02T18:39:00.434Z,0.00
2019-05-02T18:41:26.660Z,1.00
2019-05-02T18:43:56.926Z,0.00
2019-05-02T18:46:27.344Z,0.00
2019-05-02T18:48:57.388Z,1.00
2019-05-02T18:51:27.923Z,0.00
2019-05-02T18:54:04.264Z,0.00
2019-05-02T18:56:33.964Z,0.00
2019-05-02T18:59:02.648Z,1.00
2019-05-02T19:01:32.782Z,0.00
2019-05-02T19:04:03.007Z,0.00
2019-05-02T19:06:36.174Z,0.80
2019-05-02T19:09:08.204Z,0.00
2019-05-02T19:11:38.371Z,1.00
2019-05-02T19:14:08.498Z,0.20
2019-05-02T19:16:38.962Z,0.00
2019-05-02T19:19:09.368Z,1.00
2019-05-02T19:21:39.646Z,0.00
2019-05-02T19:24:10.425Z,0.00
2019-05-02T19:26:48.644Z,0.00
2019-05-02T19:29:17.195Z,1.00
2019-05-02T19:31:46.825Z,0.00
2019-05-02T19:34:22.907Z,0.80
2019-05-02T19:36:50.113Z,0.00
2019-05-02T19:39:24.054Z,1.60
2019-05-02T19:41:52.326Z,0.60
2019-05-02T19:44:29.224Z,0.00
2019-05-02T19:46:55.032Z,0.60
2019-05-02T19:49:25.495Z,0.80
2019-05-02T19:51:58.135Z,1.00
2019-05-02T19:54:33.598Z,1.00
2019-05-02T19:56:59.929Z,0.80
2019-05-02T19:59:32.001Z,0.00
2019-05-02T20:02:05.917Z,1.00
2019-05-02T20:04:37.613Z,1.00
2019-05-02T20:07:05.910Z,0.20
2019-05-02T20:09:38.081Z,1.00
2019-05-02T20:12:11.602Z,1.00
2019-05-02T20:14:43.605Z,1.00
2019-05-02T20:17:14.889Z,1.40
2019-05-02T20:19:48.377Z,1.00
2019-05-02T20:22:18.985Z,1.40
2019-05-02T20:24:58.361Z,1.00
2019-05-02T20:27:28.406Z,1.20
2019-05-02T20:29:58.989Z,1.00
2019-05-02T20:32:29.418Z,1.00
2019-05-02T20:34:59.543Z,0.80
2019-05-02T20:37:29.958Z,1.00
2019-05-02T20:40:02.756Z,0.00
2019-05-02T20:42:32.668Z,1.00
2019-05-02T20:45:02.899Z,1.00
2019-05-02T20:47:33.110Z,0.20
2019-05-02T20:50:05.917Z,1.00
2019-05-02T20:52:35.407Z,1.20
2019-05-02T20:55:07.331Z,0.60
2019-05-02T20:57:37.785Z,1.80
2019-05-02T21:00:12.238Z,0.00
2019-05-02T21:02:42.804Z,3.20
2019-05-02T21:05:16.175Z,1.80
2019-05-02T21:08:04.229Z,2.00
2019-05-02T21:10:39.247Z,2.60
2019-05-02T21:13:09.375Z,1.00
2019-05-02T21:15:39.597Z,1.80
2019-05-02T21:18:11.617Z,0.40
2019-05-02T21:20:41.797Z,1.00
2019-05-02T21:23:12.514Z,1.00
2019-05-02T21:25:42.655Z,1.00
2019-05-02T21:28:13.163Z,0.20
2019-05-02T21:30:43.793Z,2.00
2019-05-02T21:33:28.865Z,2.00
2019-05-02T21:35:59.003Z,1.20
2019-05-02T21:38:29.517Z,0.80
2019-05-02T21:40:59.749Z,1.40
2019-05-02T21:43:31.550Z,0.20
2019-05-02T21:46:02.366Z,1.00
2019-05-02T21:48:33.185Z,0.60
2019-05-02T21:51:05.367Z,2.80
2019-05-02T21:53:54.904Z,1.00
2019-05-02T21:56:17.495Z,2.00
2019-05-02T21:58:52.320Z,2.00
2019-05-02T22:01:23.008Z,1.00
2019-05-02T22:03:53.139Z,1.00
2019-05-02T22:06:23.477Z,1.20
2019-05-02T22:08:53.604Z,1.00
2019-05-02T22:11:23.837Z,0.20
2019-05-02T22:13:54.661Z,1.00
2019-05-02T22:16:25.159Z,1.40
2019-05-02T22:18:55.822Z,2.00
2019-05-02T22:21:26.001Z,1.20
2019-05-02T22:24:08.230Z,1.00
2019-05-02T22:26:28.624Z,0.40
2019-05-02T22:29:01.764Z,1.60
2019-05-02T22:31:32.421Z,1.00
2019-05-02T22:34:02.684Z,0.00
2019-05-02T22:36:32.998Z,1.00
2019-05-02T22:39:05.193Z,1.00
2019-05-02T22:41:35.412Z,0.40
2019-05-02T22:44:05.729Z,0.80
2019-05-02T22:46:43.821Z,1.00
2019-05-02T22:49:15.074Z,0.00
2019-05-02T22:51:45.516Z,0.60
2019-05-02T22:54:26.718Z,0.00
2019-05-02T22:56:48.019Z,0.60
2019-05-02T22:59:18.328Z,0.00
2019-05-02T23:01:48.797Z,0.00
2019-05-02T23:04:19.069Z,0.00
2019-05-02T23:06:49.377Z,0.00
2019-05-02T23:09:19.687Z,0.60
2019-05-02T23:11:51.896Z,0.00
2019-05-02T23:14:22.318Z,0.00
2019-05-02T23:16:53.001Z,0.00
2019-05-02T23:19:23.272Z,0.40
2019-05-02T23:21:53.396Z,0.00
2019-05-02T23:24:36.261Z,0.00
2019-05-02T23:27:02.342Z,0.00
2019-05-02T23:29:33.042Z,0.00
2019-05-02T23:32:03.880Z,1.00
2019-05-02T23:34:34.629Z,0.00
2019-05-02T23:37:04.857Z,0.00
2019-05-02T23:39:35.377Z,0.00
2019-05-02T23:42:05.606Z,0.00
2019-05-02T23:44:36.319Z,0.00
2019-05-02T23:47:06.360Z,0.40
2019-05-02T23:49:36.684Z,0.00
2019-05-02T23:52:06.904Z,0.80
2019-05-02T23:54:48.887Z,0.00
2019-05-02T23:57:08.779Z,0.40
2019-05-02T23:59:39.113Z,0.00
